< Typhoon 201704 2017 Season Typhoon 201706 >
Typhoon 201705 (NORU)
General InformationDetailed Track InformationTrack Information on Google MapsForecast History on Google MapsAccess Analytics MapList of All Images || NewsDisaster Info.WeblogTrackbackTyphoon FrontTwiphoonTyphoon Now!Typhoon ImaginationDisaster Info. XMLResourceGoogle EarthGE AnimationAtom FeedGeoJSON
Detalied Best Track Wind (Time Zone = UTC)
Year Month Day Hour Lat. Long. Wind (kt) Gust (kt) Direc. of Major Storm Axis Radius of Major Storm Axis (nm) Radius of Minor Storm Axis (nm) Direc. of Major Gale Axis Radius of Major Gale Axis (nm) Radius of Minor Gale Axis (nm) Image
2017 7 19 12 26.4 161.8 30 45 - - - - - - Image
2017 7 19 15 26.5 161.5 30 45 - - - - - - Image
2017 7 19 18 26.5 161.2 30 45 - - - - - - Image
2017 7 19 21 26.7 161.0 30 45 - - - - - - Image
2017 7 20 00 26.8 160.9 30 45 - - - - - - Image
2017 7 20 03 27.4 160.7 30 45 - - - - - - Image
2017 7 20 06 27.4 160.4 30 45 - - - - - - Image
2017 7 20 09 27.4 160.1 30 45 - - - - - - Image
2017 7 20 12 27.4 159.9 30 45 - - - - - - Image
2017 7 20 15 27.4 159.3 30 45 - - - - - - Image
2017 7 20 18 27.5 158.9 30 45 - - - - - - Image
2017 7 20 21 27.4 158.6 30 45 - - - - - - Image
2017 7 21 00 27.3 158.5 35 50 - - - symmetric 120 120 Image
2017 7 21 03 28.1 157.4 35 50 - - - symmetric 150 150 Image
2017 7 21 06 28.2 157.2 35 50 - - - symmetric 150 150 Image
2017 7 21 09 28.2 156.9 35 50 - - - symmetric 150 150 Image
2017 7 21 12 28.2 156.3 35 50 - - - symmetric 150 150 Image
2017 7 21 15 28.3 155.6 35 50 - - - symmetric 180 180 Image
2017 7 21 18 28.4 154.8 35 50 - - - symmetric 180 180 Image
2017 7 21 21 28.4 154.4 35 50 - - - symmetric 180 180 Image
2017 7 22 00 28.5 154.3 35 50 - - - symmetric 180 180 Image
2017 7 22 03 28.5 154.1 35 50 - - - symmetric 180 180 Image
2017 7 22 06 28.6 154.0 40 60 - - - symmetric 180 180 Image
2017 7 22 09 28.6 153.8 40 60 - - - symmetric 180 180 Image
2017 7 22 12 28.6 153.4 45 65 - - - symmetric 180 180 Image
2017 7 22 15 28.6 152.9 45 65 - - - symmetric 180 180 Image
2017 7 22 18 28.6 152.2 45 65 - - - symmetric 180 180 Image
2017 7 22 21 28.4 151.8 45 65 - - - symmetric 180 180 Image
2017 7 23 00 28.2 151.4 50 70 - - - symmetric 180 180 Image
2017 7 23 03 28.2 151.2 50 70 - - - symmetric 180 180 Image
2017 7 23 06 28.1 151.2 60 85 symmetric 40 40 symmetric 180 180 Image
2017 7 23 09 28.0 151.3 60 85 symmetric 40 40 symmetric 180 180 Image
2017 7 23 12 28.1 151.4 70 100 symmetric 40 40 symmetric 180 180 Image
2017 7 23 15 27.9 151.2 70 100 symmetric 40 40 symmetric 180 180 Image
2017 7 23 18 27.6 151.6 70 100 symmetric 40 40 symmetric 180 180 Image
2017 7 23 21 27.4 151.9 70 100 symmetric 40 40 symmetric 180 180 Image
2017 7 24 00 27.2 152.2 70 100 symmetric 40 40 symmetric 180 180 Image
2017 7 24 03 27.0 152.6 70 100 symmetric 40 40 symmetric 180 180 Image
2017 7 24 06 26.7 152.9 70 100 symmetric 40 40 symmetric 180 180 Image
2017 7 24 09 26.5 153.7 70 100 symmetric 40 40 symmetric 180 180 Image
2017 7 24 12 26.2 154.1 70 100 symmetric 40 40 symmetric 180 180 Image
2017 7 24 15 25.8 154.8 70 100 symmetric 40 40 symmetric 180 180 Image
2017 7 24 18 25.9 155.4 70 100 symmetric 50 50 symmetric 180 180 Image
2017 7 24 21 25.8 156.1 70 100 symmetric 50 50 symmetric 180 180 Image
2017 7 25 00 25.7 156.6 70 100 symmetric 50 50 symmetric 180 180 Image
2017 7 25 03 25.8 157.1 70 100 symmetric 50 50 symmetric 180 180 Image
2017 7 25 06 25.9 157.5 70 100 symmetric 50 50 symmetric 180 180 Image
2017 7 25 09 26.0 157.8 70 100 symmetric 50 50 symmetric 180 180 Image
2017 7 25 12 26.2 158.1 70 100 symmetric 50 50 symmetric 180 180 Image
2017 7 25 15 26.6 158.3 70 100 symmetric 50 50 symmetric 180 180 Image
2017 7 25 18 27.0 158.4 70 100 symmetric 50 50 symmetric 180 180 Image
2017 7 25 21 27.5 158.3 70 100 symmetric 50 50 symmetric 180 180 Image
2017 7 26 00 28.0 158.0 70 100 symmetric 50 50 symmetric 180 180 Image
2017 7 26 03 28.4 157.6 70 100 symmetric 50 50 NE 210 150 Image
2017 7 26 06 29.0 157.1 70 100 symmetric 50 50 NE 210 150 Image
2017 7 26 09 29.4 156.5 70 100 symmetric 50 50 NE 210 150 Image
2017 7 26 12 29.8 155.7 70 100 symmetric 50 50 NE 210 150 Image
2017 7 26 15 30.2 154.7 70 100 symmetric 50 50 NE 210 150 Image
2017 7 26 18 30.4 154.1 70 100 symmetric 50 50 NE 210 150 Image
2017 7 26 21 30.9 153.1 70 100 symmetric 50 50 NE 210 150 Image
2017 7 27 00 30.7 152.1 70 100 symmetric 50 50 NE 210 150 Image
2017 7 27 03 30.8 151.4 70 100 symmetric 50 50 NE 210 150 Image
2017 7 27 06 31.0 150.5 70 100 symmetric 50 50 NE 250 150 Image
2017 7 27 09 31.0 149.4 70 100 symmetric 50 50 NE 250 150 Image
2017 7 27 12 30.8 148.5 70 100 symmetric 50 50 NE 250 150 Image
2017 7 27 15 30.6 147.6 70 100 symmetric 50 50 NE 250 150 Image
2017 7 27 18 30.4 146.8 65 95 symmetric 45 45 NE 250 150 Image
2017 7 27 21 30.0 145.9 65 95 symmetric 45 45 NE 250 150 Image
2017 7 28 00 29.6 145.2 65 95 symmetric 45 45 NE 250 150 Image
2017 7 28 03 29.2 144.9 65 95 symmetric 45 45 NE 210 120 Image
2017 7 28 06 28.6 144.4 65 95 symmetric 45 45 NE 210 120 Image
2017 7 28 09 28.6 144.0 65 95 symmetric 45 45 NE 210 120 Image
2017 7 28 12 28.2 143.8 65 95 symmetric 45 45 NE 210 120 Image
2017 7 28 15 28.0 143.4 65 95 symmetric 45 45 N 210 120 Image
2017 7 28 18 27.7 143.5 65 95 symmetric 45 45 N 210 120 Image
2017 7 28 21 27.6 142.9 65 95 symmetric 45 45 N 210 120 Image
2017 7 29 00 27.1 142.9 60 85 symmetric 45 45 N 210 120 Image
2017 7 29 03 26.6 142.5 60 85 symmetric 45 45 N 150 120 Image
2017 7 29 06 26.1 142.2 60 85 symmetric 45 45 N 150 120 Image
2017 7 29 09 25.7 142.1 60 85 symmetric 45 45 N 150 120 Image
2017 7 29 12 25.3 142.0 60 85 symmetric 45 45 N 150 120 Image
2017 7 29 15 24.8 141.7 60 85 symmetric 45 45 N 150 120 Image
2017 7 29 18 24.5 141.6 60 85 symmetric 45 45 N 150 120 Image
2017 7 29 21 24.3 141.7 60 85 symmetric 45 45 N 150 120 Image
2017 7 30 00 23.9 141.8 60 85 symmetric 45 45 N 150 120 Image
2017 7 30 03 23.7 141.6 60 85 symmetric 45 45 N 150 120 Image
2017 7 30 06 23.4 141.5 65 95 symmetric 45 45 N 150 120 Image
2017 7 30 09 23.0 141.5 65 95 symmetric 45 45 symmetric 150 150 Image
2017 7 30 12 22.9 141.4 80 115 symmetric 70 70 symmetric 150 150 Image
2017 7 30 15 22.8 141.2 80 115 symmetric 70 70 symmetric 150 150 Image
2017 7 30 18 22.8 140.9 85 120 symmetric 80 80 symmetric 150 150 Image
2017 7 30 21 22.8 140.7 85 120 symmetric 80 80 symmetric 150 150 Image
2017 7 31 00 22.8 140.4 90 130 symmetric 90 90 symmetric 150 150 Image
2017 7 31 03 22.8 140.2 90 130 symmetric 90 90 symmetric 150 150 Image
2017 7 31 06 22.9 139.9 95 135 symmetric 90 90 symmetric 150 150 Image
2017 7 31 09 23.0 139.6 95 135 symmetric 90 90 symmetric 150 150 Image
2017 7 31 12 23.0 139.3 100 140 symmetric 90 90 symmetric 150 150 Image
2017 7 31 15 23.1 139.1 100 140 symmetric 90 90 symmetric 150 150 Image
2017 7 31 18 23.3 138.8 100 140 symmetric 90 90 symmetric 150 150 Image
2017 7 31 21 23.5 138.5 100 140 symmetric 90 90 symmetric 150 150 Image
2017 8 1 00 23.6 138.2 95 135 symmetric 90 90 symmetric 150 150 Image
2017 8 1 03 23.8 138.0 95 135 symmetric 90 90 symmetric 150 150 Image
2017 8 1 06 24.1 137.7 90 130 symmetric 60 60 symmetric 150 150 Image
2017 8 1 09 24.2 137.5 90 130 symmetric 60 60 symmetric 150 150 Image
2017 8 1 12 24.4 137.3 90 130 symmetric 60 60 symmetric 150 150 Image
2017 8 1 15 24.7 137.0 90 130 symmetric 60 60 symmetric 150 150 Image
2017 8 1 18 25.0 136.7 90 130 symmetric 60 60 symmetric 150 150 Image
2017 8 1 21 25.2 136.5 90 130 symmetric 60 60 symmetric 150 150 Image
2017 8 2 00 25.5 136.3 90 130 symmetric 60 60 symmetric 150 150 Image
2017 8 2 03 25.7 136.2 90 130 symmetric 60 60 symmetric 150 150 Image
2017 8 2 06 25.9 135.9 85 120 symmetric 60 60 symmetric 150 150 Image
2017 8 2 09 26.1 135.8 85 120 symmetric 60 60 symmetric 150 150 Image
2017 8 2 12 26.1 135.7 85 120 symmetric 60 60 symmetric 150 150 Image
2017 8 2 15 26.3 135.6 85 120 symmetric 60 60 symmetric 150 150 Image
2017 8 2 18 26.7 135.5 85 120 symmetric 60 60 symmetric 150 150 Image
2017 8 2 21 27.1 135.3 85 120 symmetric 60 60 symmetric 150 150 Image
2017 8 3 00 27.5 134.9 85 120 symmetric 60 60 symmetric 150 150 Image
2017 8 3 03 27.7 134.5 85 120 symmetric 70 70 symmetric 180 180 Image
2017 8 3 06 27.9 134.1 85 120 symmetric 70 70 symmetric 180 180 Image
2017 8 3 09 28.1 133.7 85 120 symmetric 70 70 symmetric 180 180 Image
2017 8 3 12 28.2 133.5 80 115 symmetric 70 70 symmetric 180 180 Image
2017 8 3 15 28.3 133.0 80 115 symmetric 70 70 symmetric 180 180 Image
2017 8 3 18 28.3 132.5 80 115 symmetric 70 70 symmetric 180 180 Image
2017 8 3 21 28.5 132.0 80 115 symmetric 70 70 symmetric 180 180 Image
2017 8 4 00 28.5 131.5 80 115 symmetric 70 70 symmetric 180 180 Image
2017 8 4 03 28.6 131.4 80 115 symmetric 70 70 symmetric 180 180 Image
2017 8 4 06 28.5 131.3 75 105 symmetric 60 60 symmetric 150 150 Image
2017 8 4 09 28.7 131.2 75 105 symmetric 60 60 symmetric 150 150 Image
2017 8 4 12 29.1 130.8 75 105 symmetric 60 60 symmetric 150 150 Image
2017 8 4 15 29.1 130.7 75 105 symmetric 60 60 symmetric 150 150 Image
2017 8 4 18 29.2 130.5 70 100 symmetric 55 55 symmetric 150 150 Image
2017 8 4 21 29.3 130.4 70 100 symmetric 50 50 symmetric 150 150 Image
2017 8 5 00 29.6 130.3 70 100 symmetric 50 50 symmetric 150 150 Image
2017 8 5 03 29.8 130.2 70 100 symmetric 50 50 symmetric 150 150 Image
2017 8 5 06 30.0 130.2 70 100 symmetric 50 50 symmetric 150 150 Image
2017 8 5 09 30.0 130.1 70 100 symmetric 50 50 symmetric 150 150 Image
2017 8 5 12 30.1 130.1 65 95 symmetric 50 50 symmetric 150 150 Image
2017 8 5 15 30.1 130.3 65 95 symmetric 50 50 symmetric 150 150 Image
2017 8 5 18 30.3 130.5 65 95 symmetric 50 50 symmetric 150 150 Image
2017 8 5 21 30.4 130.6 65 95 symmetric 50 50 symmetric 150 150 Image
2017 8 6 00 30.7 130.9 65 95 symmetric 50 50 symmetric 150 150 Image
2017 8 6 03 31.0 131.1 65 95 symmetric 50 50 symmetric 150 150 Image
2017 8 6 06 31.0 131.5 60 85 symmetric 50 50 symmetric 150 150 Image
2017 8 6 09 31.4 131.8 60 85 symmetric 50 50 symmetric 150 150 Image
2017 8 6 12 31.8 132.3 60 85 symmetric 50 50 symmetric 150 150 Image
2017 8 6 15 32.2 132.5 60 85 symmetric 50 50 symmetric 150 150 Image
2017 8 6 18 32.5 132.9 60 85 symmetric 50 50 symmetric 150 150 Image
2017 8 6 21 32.8 133.4 60 85 symmetric 50 50 symmetric 150 150 Image
2017 8 7 00 33.1 134.0 60 85 symmetric 50 50 symmetric 150 150 Image
2017 8 7 03 33.6 134.6 60 85 symmetric 50 50 symmetric 150 150 Image
2017 8 7 06 34.0 135.0 55 80 SW 50 30 SW 150 90 Image
2017 8 7 09 34.5 135.7 55 80 SW 50 30 SW 150 90 Image
2017 8 7 12 35.2 136.2 50 70 - - - S 150 90 Image
2017 8 7 15 35.6 136.3 45 65 - - - SE 180 120 Image
2017 8 7 18 36.2 136.8 40 60 - - - SE 180 120 Image
2017 8 7 21 37.1 137.4 40 60 - - - SE 180 120 Image
2017 8 8 00 37.3 137.7 40 60 - - - SE 200 120 Image
2017 8 8 03 37.4 137.7 40 60 - - - SE 200 120 Image
2017 8 8 06 37.7 138.1 35 50 - - - SE 240 120 Image
2017 8 8 09 38.2 138.3 35 50 - - - SE 240 120 Image
2017 8 8 12 38.3 138.8 35 50 - - - SE 240 180 Image
2017 8 8 15 38.5 138.9 35 50 - - - SE 240 180 Image
2017 8 8 18 39.0 139.0 0 0 - - - - - - Image
Japan Meteorological Agency Best Track Data | Correction Date : 2017-08-08
< Typhoon 201704 2017 Season Typhoon 201706 >

Help